Briarcliff, Georgia
Current Conditions -  °F | °C
As of 6:53 AM on Friday 19 Dec 2014 (Local Time) from KPDK Reporting Station
Clear Clear  
Wind Chill: 37°   Ceiling: Unl
Heat Index: 37°   Visibility: 10mi
Dew Point: 31°   Wind: 3mph
Humidity: 79%   Direction: 300°WNW
Pressure: 30.14"   Gusts: NA
Location:  33.8247°N, 84.323°W
Report Text: KPDK 191153Z 30003KT 10SM CLR 03/M01 A3014 RMK AO2 SLP216 T00281006 10050 20028 53006
Loading
Personal Weather Stations






























Interactive Weather Map New forecast layout! Learn more

10-Day Weather Forecast

Advertisements
Track Severe Weather on mobile